createdAt,value
2018-10-11T00:00:55.203Z,0
2018-10-11T00:01:55.196Z,0
2018-10-11T00:02:55.688Z,0
2018-10-11T00:03:55.177Z,0
2018-10-11T00:04:55.167Z,0
2018-10-11T00:05:55.414Z,0
2018-10-11T00:06:55.414Z,0
2018-10-11T00:07:55.395Z,0
2018-10-11T00:08:55.388Z,0
2018-10-11T00:09:55.128Z,0
2018-10-11T00:10:55.123Z,0
2018-10-11T00:11:55.372Z,0
2018-10-11T00:12:55.362Z,0
2018-10-11T00:13:55.354Z,0
2018-10-11T00:14:55.096Z,0
2018-10-11T00:15:55.088Z,0
2018-10-11T00:16:54.824Z,0
2018-10-11T00:17:54.820Z,0
2018-10-11T00:18:55.073Z,0
2018-10-11T00:19:54.912Z,0
2018-10-11T00:20:55.053Z,0
2018-10-11T00:21:55.300Z,0
2018-10-11T00:22:55.286Z,0
2018-10-11T00:23:55.025Z,0
2018-10-11T00:24:55.269Z,0
2018-10-11T00:25:55.262Z,0
2018-10-11T00:26:55.266Z,0
2018-10-11T00:27:55.253Z,0
2018-10-11T00:28:55.242Z,0
2018-10-11T00:29:55.228Z,0
2018-10-11T00:30:55.626Z,0
2018-10-11T00:31:54.989Z,0
2018-10-11T00:32:54.959Z,0
2018-10-11T00:33:55.463Z,0
2018-10-11T00:34:54.942Z,0
2018-10-11T00:35:54.938Z,0
2018-10-11T00:36:55.189Z,0
2018-10-11T00:37:55.177Z,0
2018-10-11T00:38:55.179Z,0
2018-10-11T00:39:54.909Z,0
2018-10-11T00:40:55.150Z,0
2018-10-11T00:41:54.888Z,0
2018-10-11T00:42:55.136Z,0
2018-10-11T00:43:54.880Z,0
2018-10-11T00:44:55.123Z,0
2018-10-11T00:45:55.115Z,0
2018-10-11T00:46:55.100Z,0
2018-10-11T00:47:55.097Z,0
2018-10-11T00:48:54.837Z,0
2018-10-11T00:49:55.077Z,0
2018-10-11T00:50:55.080Z,0
2018-10-11T00:51:54.812Z,0
2018-10-11T00:52:54.817Z,0
2018-10-11T00:53:55.050Z,0
2018-10-11T00:54:55.045Z,0
2018-10-11T00:55:55.040Z,0
2018-10-11T00:56:55.025Z,0
2018-10-11T00:57:55.027Z,0
2018-10-11T00:58:54.760Z,0
2018-10-11T00:59:54.750Z,0
2018-10-11T01:00:54.997Z,0
2018-10-11T01:01:54.490Z,0
2018-10-11T01:02:54.982Z,0
2018-10-11T01:03:54.966Z,0
2018-10-11T01:04:54.761Z,0
2018-10-11T01:05:54.960Z,0
2018-10-11T01:06:54.694Z,0
2018-10-11T01:07:54.433Z,0
2018-10-11T01:08:54.674Z,0
2018-10-11T01:09:55.139Z,0
2018-10-11T01:10:54.927Z,0
2018-10-11T01:11:54.907Z,0
2018-10-11T01:12:54.902Z,0
2018-10-11T01:13:54.897Z,0
2018-10-11T01:14:54.676Z,0
2018-10-11T01:15:54.374Z,0
2018-10-11T01:16:54.870Z,0
2018-10-11T01:17:54.362Z,0
2018-10-11T01:18:54.605Z,0
2018-10-11T01:19:54.848Z,0
2018-10-11T01:20:54.838Z,0
2018-10-11T01:21:54.571Z,0
2018-10-11T01:22:54.823Z,0
2018-10-11T01:23:54.989Z,0
2018-10-11T01:24:54.807Z,0
2018-10-11T01:25:54.593Z,0
2018-10-11T01:26:54.284Z,0
2018-10-11T01:27:54.573Z,0
2018-10-11T01:28:54.770Z,0
2018-10-11T01:29:55.249Z,0
2018-10-11T01:30:54.259Z,0
2018-10-11T01:31:54.752Z,0
2018-10-11T01:32:54.736Z,0
2018-10-11T01:33:54.732Z,0
2018-10-11T01:34:54.216Z,0
2018-10-11T01:35:54.712Z,0
2018-10-11T01:36:54.706Z,0
2018-10-11T01:37:54.697Z,0
2018-10-11T01:38:55.299Z,0
2018-10-11T01:39:54.680Z,0
2018-10-11T01:40:54.680Z,0
2018-10-11T01:41:54.409Z,0
2018-10-11T01:42:54.652Z,0
2018-10-11T01:43:54.653Z,0
2018-10-11T01:44:54.644Z,0
2018-10-11T01:45:54.635Z,0
2018-10-11T01:46:54.121Z,0
2018-10-11T01:47:54.609Z,0
2018-10-11T01:48:54.100Z,0
2018-10-11T01:49:54.604Z,0
2018-10-11T01:50:54.334Z,0
2018-10-11T01:51:54.580Z,0
2018-10-11T01:52:54.320Z,0
2018-10-11T01:53:54.561Z,0
2018-10-11T01:54:54.555Z,0
2018-10-11T01:55:54.555Z,0
2018-10-11T01:56:55.029Z,0
2018-10-11T01:57:54.029Z,0
2018-10-11T01:58:54.278Z,0
2018-10-11T01:59:54.015Z,0
2018-10-11T02:00:54.505Z,0
2018-10-11T02:01:54.494Z,0
2018-10-11T02:02:54.233Z,0
2018-10-11T02:03:54.486Z,0
2018-10-11T02:04:54.215Z,0
2018-10-11T02:05:53.961Z,0
2018-10-11T02:06:54.704Z,0
2018-10-11T02:07:54.195Z,0
2018-10-11T02:08:54.188Z,0
2018-10-11T02:09:53.925Z,0
2018-10-11T02:10:54.424Z,0
2018-10-11T02:11:53.924Z,0
2018-10-11T02:12:54.156Z,0
2018-10-11T02:13:53.888Z,0
2018-10-11T02:14:54.398Z,0
2018-10-11T02:15:54.375Z,0
2018-10-11T02:16:54.112Z,0
2018-10-11T02:17:54.375Z,0
2018-10-11T02:18:54.095Z,0
2018-10-11T02:19:54.088Z,0
2018-10-11T02:20:54.334Z,0
2018-10-11T02:21:54.327Z,0
2018-10-11T02:22:54.623Z,0
2018-10-11T02:23:54.066Z,0
2018-10-11T02:24:54.052Z,0
2018-10-11T02:25:54.293Z,0
2018-10-11T02:26:54.289Z,0
2018-10-11T02:27:54.283Z,0
2018-10-11T02:28:54.019Z,0
2018-10-11T02:29:54.261Z,0
2018-10-11T02:30:54.248Z,0
2018-10-11T02:31:54.471Z,0
2018-10-11T02:32:54.227Z,0
2018-10-11T02:33:53.717Z,0
2018-10-11T02:34:53.961Z,0
2018-10-11T02:35:53.447Z,0
2018-10-11T02:36:53.689Z,0
2018-10-11T02:37:53.950Z,0
2018-10-11T02:38:54.186Z,0
2018-10-11T02:39:53.670Z,0
2018-10-11T02:40:54.161Z,0
2018-10-11T02:41:54.153Z,0
2018-10-11T02:42:53.644Z,0
2018-10-11T02:43:54.130Z,0
2018-10-11T02:44:53.882Z,0
2018-10-11T02:45:53.863Z,0
2018-10-11T02:46:54.104Z,0
2018-10-11T02:47:54.103Z,0
2018-10-11T02:48:54.097Z,0
2018-10-11T02:49:53.582Z,0
2018-10-11T02:50:53.613Z,0
2018-10-11T02:51:53.819Z,0
2018-10-11T02:52:53.803Z,0
2018-10-11T02:53:54.064Z,0
2018-10-11T02:54:54.038Z,0
2018-10-11T02:55:53.777Z,0
2018-10-11T02:56:54.021Z,0
2018-10-11T02:57:53.760Z,0
2018-10-11T02:58:53.748Z,0
2018-10-11T02:59:53.740Z,0
2018-10-11T03:00:53.994Z,0
2018-10-11T03:01:53.978Z,0
2018-10-11T03:02:53.717Z,0
2018-10-11T03:03:53.968Z,0
2018-10-11T03:04:53.697Z,0
2018-10-11T03:05:53.440Z,0
2018-10-11T03:06:53.173Z,0
2018-10-11T03:07:53.667Z,0
2018-10-11T03:08:53.656Z,0
2018-10-11T03:09:54.165Z,0
2018-10-11T03:10:53.643Z,0
2018-10-11T03:11:53.377Z,0
2018-10-11T03:12:53.874Z,0
2018-10-11T03:13:53.618Z,0
2018-10-11T03:14:53.859Z,0
2018-10-11T03:15:53.615Z,0
2018-10-11T03:16:53.593Z,0
2018-10-11T03:17:53.079Z,0
2018-10-11T03:18:53.584Z,0
2018-10-11T03:19:53.816Z,0
2018-10-11T03:20:53.304Z,0
2018-10-11T03:21:53.550Z,0
2018-10-11T03:22:53.794Z,0
2018-10-11T03:23:53.783Z,0
2018-10-11T03:24:53.771Z,0
2018-10-11T03:25:53.758Z,0
2018-10-11T03:26:53.761Z,0
2018-10-11T03:27:53.740Z,0
2018-10-11T03:28:53.502Z,0
2018-10-11T03:29:53.472Z,0
2018-10-11T03:30:53.740Z,0
2018-10-11T03:31:53.749Z,0
2018-10-11T03:32:53.446Z,0
2018-10-11T03:33:53.687Z,0
2018-10-11T03:34:53.692Z,0
2018-10-11T03:35:53.679Z,0
2018-10-11T03:36:53.662Z,0
2018-10-11T03:37:53.670Z,0
2018-10-11T03:38:53.650Z,0
2018-10-11T03:39:53.641Z,0
2018-10-11T03:40:53.886Z,0
2018-10-11T03:41:53.383Z,0
2018-10-11T03:42:53.615Z,0
2018-10-11T03:43:53.598Z,0
2018-10-11T03:44:53.591Z,0
2018-10-11T03:45:53.333Z,0
2018-10-11T03:46:53.593Z,0
2018-10-11T03:47:53.583Z,0
2018-10-11T03:48:53.306Z,0
2018-10-11T03:49:53.551Z,0
2018-10-11T03:50:53.585Z,0
2018-10-11T03:51:53.284Z,0
2018-10-11T03:52:53.530Z,0
2018-10-11T03:53:53.516Z,0
2018-10-11T03:54:53.523Z,0
2018-10-11T03:55:53.260Z,0
2018-10-11T03:56:53.241Z,0
2018-10-11T03:57:53.479Z,0
2018-10-11T03:58:53.480Z,0
2018-10-11T03:59:53.460Z,0
2018-10-11T04:00:53.457Z,0
2018-10-11T04:01:53.448Z,0
2018-10-11T04:02:53.184Z,0
2018-10-11T04:03:53.181Z,0
2018-10-11T04:04:53.470Z,0
2018-10-11T04:05:53.409Z,0
2018-10-11T04:06:53.152Z,0
2018-10-11T04:07:53.395Z,0
2018-10-11T04:08:53.388Z,0
2018-10-11T04:09:53.394Z,0
2018-10-11T04:10:53.370Z,0
2018-10-11T04:11:53.361Z,0
2018-10-11T04:12:53.109Z,0
2018-10-11T04:13:53.091Z,0
2018-10-11T04:14:53.092Z,0
2018-10-11T04:15:53.538Z,0
2018-10-11T04:16:53.330Z,0
2018-10-11T04:17:53.054Z,0
2018-10-11T04:18:53.091Z,0
2018-10-11T04:19:52.786Z,0
2018-10-11T04:20:53.285Z,0
2018-10-11T04:21:53.284Z,0
2018-10-11T04:22:52.757Z,0
2018-10-11T04:23:53.256Z,0
2018-10-11T04:24:53.251Z,0
2018-10-11T04:25:52.989Z,0
2018-10-11T04:26:52.726Z,0
2018-10-11T04:27:52.970Z,0
2018-10-11T04:28:52.966Z,0
2018-10-11T04:29:53.249Z,0
2018-10-11T04:30:53.192Z,0
2018-10-11T04:31:52.929Z,0
2018-10-11T04:32:52.937Z,0
2018-10-11T04:33:53.159Z,0
2018-10-11T04:34:52.913Z,0
2018-10-11T04:35:52.905Z,0
2018-10-11T04:36:53.137Z,0
2018-10-11T04:37:53.135Z,0
2018-10-11T04:38:52.872Z,0
2018-10-11T04:39:53.116Z,0
2018-10-11T04:40:52.847Z,0
2018-10-11T04:41:53.100Z,0
2018-10-11T04:42:53.412Z,0
2018-10-11T04:43:53.081Z,0
2018-10-11T04:44:53.068Z,0
2018-10-11T04:45:53.117Z,0
2018-10-11T04:46:53.045Z,0
2018-10-11T04:47:53.046Z,0
2018-10-11T04:48:52.787Z,0
2018-10-11T04:49:53.025Z,0
2018-10-11T04:50:53.008Z,0
2018-10-11T04:51:52.746Z,0
2018-10-11T04:52:53.005Z,0
2018-10-11T04:53:52.628Z,0
2018-10-11T04:54:52.482Z,0
2018-10-11T04:55:52.972Z,0
2018-10-11T04:56:52.704Z,0
2018-10-11T04:57:52.948Z,0
2018-10-11T04:58:52.944Z,0
2018-10-11T04:59:53.537Z,0
2018-10-11T05:00:52.930Z,0
2018-10-11T05:01:52.664Z,0
2018-10-11T05:02:52.649Z,0
2018-10-11T05:03:52.638Z,0
2018-10-11T05:04:52.634Z,0
2018-10-11T05:05:52.623Z,0
2018-10-11T05:06:52.864Z,0
2018-10-11T05:07:52.866Z,0
2018-10-11T05:08:52.599Z,0
2018-10-11T05:09:52.839Z,0
2018-10-11T05:10:52.825Z,0
2018-10-11T05:11:52.824Z,0
2018-10-11T05:12:52.562Z,5
2018-10-11T05:13:52.804Z,0
2018-10-11T05:14:52.542Z,5
2018-10-11T05:15:52.282Z,5
2018-10-11T05:16:52.522Z,5
2018-10-11T05:17:52.788Z,5
2018-10-11T05:18:52.501Z,5
2018-10-11T05:19:52.498Z,5
2018-10-11T05:20:52.485Z,5
2018-10-11T05:21:52.726Z,10
2018-10-11T05:22:52.728Z,10
2018-10-11T05:23:52.712Z,10
2018-10-11T05:24:52.455Z,10
2018-10-11T05:25:52.466Z,15
2018-10-11T05:26:52.438Z,15
2018-10-11T05:27:52.680Z,15
2018-10-11T05:28:52.693Z,15
2018-10-11T05:29:52.694Z,20
2018-10-11T05:30:52.149Z,20
2018-10-11T05:31:52.130Z,20
2018-10-11T05:32:52.639Z,25
2018-10-11T05:33:52.383Z,25
2018-10-11T05:34:52.362Z,25
2018-10-11T05:35:52.612Z,25
2018-10-11T05:36:52.336Z,30
2018-10-11T05:37:52.580Z,30
2018-10-11T05:38:52.603Z,35
2018-10-11T05:39:52.577Z,35
2018-10-11T05:40:52.579Z,35
2018-10-11T05:41:52.297Z,35
2018-10-11T05:42:52.037Z,40
2018-10-11T05:43:52.281Z,45
2018-10-11T05:44:52.777Z,45
2018-10-11T05:45:52.513Z,50
2018-10-11T05:46:52.507Z,50
2018-10-11T05:47:52.495Z,55
2018-10-11T05:48:52.239Z,60
2018-10-11T05:49:52.478Z,60
2018-10-11T05:50:52.222Z,65
2018-10-11T05:51:51.956Z,70
2018-10-11T05:52:52.482Z,70
2018-10-11T05:53:52.441Z,75
2018-10-11T05:54:52.444Z,75
2018-10-11T05:55:52.171Z,85
2018-10-11T05:56:52.580Z,85
2018-10-11T05:57:52.406Z,90
2018-10-11T05:58:52.397Z,90
2018-10-11T05:59:52.146Z,95
2018-10-11T06:00:52.392Z,100
2018-10-11T06:01:52.380Z,105
2018-10-11T06:02:52.383Z,105
2018-10-11T06:03:52.366Z,110
2018-10-11T06:04:52.102Z,115
2018-10-11T06:05:52.093Z,115
2018-10-11T06:06:52.099Z,120
2018-10-11T06:07:52.080Z,125
2018-10-11T06:08:52.321Z,125
2018-10-11T06:09:52.059Z,125
2018-10-11T06:10:52.067Z,130
2018-10-11T06:11:52.489Z,135
2018-10-11T06:12:52.296Z,140
2018-10-11T06:13:52.286Z,140
2018-10-11T06:14:52.279Z,145
2018-10-11T06:15:52.032Z,155
2018-10-11T06:16:52.566Z,160
2018-10-11T06:17:52.708Z,165
2018-10-11T06:18:52.251Z,160
2018-10-11T06:19:52.245Z,155
2018-10-11T06:20:51.992Z,145
2018-10-11T06:21:51.984Z,145
2018-10-11T06:22:52.330Z,160
2018-10-11T06:23:52.222Z,175
2018-10-11T06:24:52.724Z,190
2018-10-11T06:25:52.213Z,195
2018-10-11T06:26:51.952Z,200
2018-10-11T06:27:51.949Z,200
2018-10-11T06:28:51.938Z,205
2018-10-11T06:29:51.934Z,205
2018-10-11T06:30:51.939Z,215
2018-10-11T06:31:51.932Z,220
2018-10-11T06:32:52.173Z,235
2018-10-11T06:33:52.165Z,255
2018-10-11T06:34:51.657Z,265
2018-10-11T06:35:52.500Z,270
2018-10-11T06:36:51.828Z,285
2018-10-11T06:37:51.641Z,285
2018-10-11T06:38:52.153Z,285
2018-10-11T06:39:52.141Z,295
2018-10-11T06:40:51.880Z,305
2018-10-11T06:41:52.260Z,310
2018-10-11T06:42:52.682Z,310
2018-10-11T06:43:52.123Z,325
2018-10-11T06:44:52.125Z,330
2018-10-11T06:45:52.144Z,345
2018-10-11T06:46:51.603Z,345
2018-10-11T06:47:52.355Z,330
2018-10-11T06:48:52.108Z,280
2018-10-11T06:49:52.424Z,305
2018-10-11T06:50:52.097Z,375
2018-10-11T06:51:51.585Z,385
2018-10-11T06:52:51.844Z,390
2018-10-11T06:53:52.085Z,400
2018-10-11T06:54:52.084Z,405
2018-10-11T06:55:51.635Z,405
2018-10-11T06:56:51.822Z,405
2018-10-11T06:57:52.077Z,420
2018-10-11T06:58:51.564Z,420
2018-10-11T06:59:52.068Z,380
2018-10-11T07:00:51.815Z,340
2018-10-11T07:01:52.472Z,340
2018-10-11T07:02:51.813Z,345
2018-10-11T07:03:51.832Z,345
2018-10-11T07:04:52.054Z,345
2018-10-11T07:05:52.049Z,345
2018-10-11T07:06:52.053Z,345
2018-10-11T07:07:52.047Z,355
2018-10-11T07:08:51.801Z,360
2018-10-11T07:09:51.809Z,365
2018-10-11T07:10:51.790Z,370
2018-10-11T07:11:51.536Z,370
2018-10-11T07:12:51.526Z,375
2018-10-11T07:13:51.858Z,385
2018-10-11T07:14:51.525Z,390
2018-10-11T07:15:51.526Z,390
2018-10-11T07:16:52.036Z,395
2018-10-11T07:17:51.774Z,405
2018-10-11T07:18:51.772Z,410
2018-10-11T07:19:52.028Z,410
2018-10-11T07:20:51.766Z,410
2018-10-11T07:21:51.760Z,410
2018-10-11T07:22:52.011Z,420
2018-10-11T07:23:52.010Z,425
2018-10-11T07:24:51.761Z,430
2018-10-11T07:25:52.248Z,440
2018-10-11T07:26:51.499Z,450
2018-10-11T07:27:51.748Z,465
2018-10-11T07:28:51.765Z,475
2018-10-11T07:29:52.008Z,475
2018-10-11T07:30:51.994Z,475
2018-10-11T07:31:51.995Z,470
2018-10-11T07:32:51.999Z,470
2018-10-11T07:33:51.992Z,440
2018-10-11T07:34:53.208Z,295
2018-10-11T07:35:51.480Z,185
2018-10-11T07:36:51.484Z,170
2018-10-11T07:37:51.475Z,170
2018-10-11T07:38:51.471Z,170
2018-10-11T07:39:51.469Z,170
2018-10-11T07:40:51.935Z,170
2018-10-11T07:41:51.970Z,170
2018-10-11T07:42:51.968Z,170
2018-10-11T07:43:51.965Z,170
2018-10-11T07:44:51.956Z,170
2018-10-11T07:45:51.707Z,170
2018-10-11T07:46:51.700Z,170
2018-10-11T07:47:51.696Z,170
2018-10-11T07:48:51.699Z,170
2018-10-11T07:49:52.193Z,170
2018-10-11T07:50:51.942Z,170
2018-10-11T07:51:51.180Z,170
2018-10-11T07:52:52.157Z,170
2018-10-11T07:53:51.937Z,170
2018-10-11T07:54:51.680Z,170
2018-10-11T07:55:51.672Z,170
2018-10-11T07:56:51.916Z,170
2018-10-11T07:57:51.913Z,170
2018-10-11T07:58:51.909Z,170
2018-10-11T07:59:51.719Z,170
2018-10-11T08:00:51.904Z,170
2018-10-11T08:01:51.768Z,175
2018-10-11T08:02:51.914Z,170
2018-10-11T08:03:51.633Z,170
2018-10-11T08:04:51.915Z,170
2018-10-11T08:05:51.632Z,170
2018-10-11T08:06:51.891Z,170
2018-10-11T08:07:52.308Z,170
2018-10-11T08:08:51.954Z,170
2018-10-11T08:09:51.865Z,170
2018-10-11T08:10:52.521Z,170
2018-10-11T08:11:52.672Z,170
2018-10-11T08:12:51.868Z,170
2018-10-11T08:13:51.816Z,170
2018-10-11T08:14:51.838Z,170
2018-10-11T08:15:51.658Z,170
2018-10-11T08:16:52.608Z,170
2018-10-11T08:17:54.810Z,170
2018-10-11T08:18:52.005Z,170
2018-10-11T08:19:52.237Z,170
2018-10-11T08:20:51.856Z,170
2018-10-11T08:21:52.481Z,170
2018-10-11T08:22:51.552Z,170
2018-10-11T08:23:51.551Z,170
2018-10-11T08:24:52.196Z,170
2018-10-11T08:25:54.740Z,170
2018-10-11T08:26:52.364Z,170
2018-10-11T08:27:51.785Z,170
2018-10-11T08:28:51.278Z,170
2018-10-11T08:29:51.785Z,170
2018-10-11T08:30:51.521Z,170
2018-10-11T08:31:51.924Z,170
2018-10-11T08:32:52.239Z,170
2018-10-11T08:33:51.764Z,170
2018-10-11T08:34:51.498Z,170
2018-10-11T08:35:51.500Z,170
2018-10-11T08:36:51.496Z,170
2018-10-11T08:37:52.617Z,170
2018-10-11T08:38:51.905Z,170
2018-10-11T08:39:51.476Z,170
2018-10-11T08:40:51.475Z,170
2018-10-11T08:41:51.728Z,170
2018-10-11T08:42:51.761Z,170
2018-10-11T08:43:51.683Z,170
2018-10-11T08:44:51.199Z,170
2018-10-11T08:45:51.455Z,165
2018-10-11T08:46:51.712Z,165
2018-10-11T08:47:51.703Z,165
2018-10-11T08:48:51.696Z,165
2018-10-11T08:49:51.695Z,165
2018-10-11T08:50:51.403Z,165
2018-10-11T08:51:51.428Z,165
2018-10-11T08:52:51.430Z,165
2018-10-11T08:53:52.029Z,165
2018-10-11T08:54:51.922Z,165
2018-10-11T08:55:52.353Z,165
2018-10-11T08:56:51.422Z,165
2018-10-11T08:57:51.908Z,165
2018-10-11T08:58:51.657Z,165
2018-10-11T08:59:52.257Z,165
2018-10-11T09:00:51.653Z,165
2018-10-11T09:01:51.399Z,165
2018-10-11T09:02:51.389Z,165
2018-10-11T09:03:52.892Z,165
2018-10-11T09:04:51.387Z,160
2018-10-11T09:05:51.379Z,165
2018-10-11T09:06:51.123Z,165
2018-10-11T09:07:51.391Z,165
2018-10-11T09:08:51.373Z,165
2018-10-11T09:09:58.581Z,165
2018-10-11T09:10:51.649Z,160
2018-10-11T09:11:51.618Z,160
2018-10-11T09:12:51.101Z,160
2018-10-11T09:13:51.612Z,160
2018-10-11T09:14:51.098Z,160
2018-10-11T09:15:51.346Z,165
2018-10-11T09:16:51.610Z,160
2018-10-11T09:17:51.592Z,160
2018-10-11T09:18:51.355Z,160
2018-10-11T09:19:51.601Z,160
2018-10-11T09:20:51.336Z,160
2018-10-11T09:21:51.075Z,160
2018-10-11T09:22:51.573Z,160
2018-10-11T09:23:51.323Z,160
2018-10-11T09:24:51.324Z,160
2018-10-11T09:25:51.069Z,160
2018-10-11T09:26:51.313Z,160
2018-10-11T09:27:51.311Z,155
2018-10-11T09:28:51.051Z,155
2018-10-11T09:29:51.569Z,155
2018-10-11T09:30:51.565Z,160
2018-10-11T09:31:51.298Z,160
2018-10-11T09:32:51.935Z,160
2018-10-11T09:33:51.553Z,160
2018-10-11T09:34:51.291Z,160
2018-10-11T09:35:51.532Z,155
2018-10-11T09:36:51.032Z,155
2018-10-11T09:37:51.531Z,155
2018-10-11T09:38:51.528Z,155
2018-10-11T09:39:51.533Z,155
2018-10-11T09:40:51.520Z,155
2018-10-11T09:41:51.276Z,155
2018-10-11T09:42:51.278Z,155
2018-10-11T09:43:51.522Z,155
2018-10-11T09:44:51.519Z,155
2018-10-11T09:45:51.509Z,155
2018-10-11T09:46:51.514Z,155
2018-10-11T09:47:51.256Z,155
2018-10-11T09:48:51.615Z,155
2018-10-11T09:49:51.250Z,155
2018-10-11T09:50:51.245Z,155
2018-10-11T09:51:51.491Z,155
2018-10-11T09:52:51.501Z,155
2018-10-11T09:53:51.482Z,155
2018-10-11T09:54:51.189Z,155
2018-10-11T09:55:51.483Z,155
2018-10-11T09:56:51.481Z,155
2018-10-11T09:57:51.229Z,155
2018-10-11T09:58:51.223Z,150
2018-10-11T09:59:51.215Z,150
2018-10-11T10:00:51.525Z,150
2018-10-11T10:01:50.976Z,150
2018-10-11T10:02:51.223Z,150
2018-10-11T10:03:50.702Z,155
2018-10-11T10:04:51.460Z,155
2018-10-11T10:05:50.947Z,150
2018-10-11T10:06:51.447Z,150
2018-10-11T10:07:51.457Z,150
2018-10-11T10:08:50.948Z,155
2018-10-11T10:09:51.129Z,150
2018-10-11T10:10:50.940Z,150
2018-10-11T10:11:51.440Z,150
2018-10-11T10:12:51.802Z,150
2018-10-11T10:13:51.432Z,150
2018-10-11T10:14:50.930Z,150
2018-10-11T10:15:51.358Z,150
2018-10-11T10:16:50.921Z,150
2018-10-11T10:17:51.426Z,150
2018-10-11T10:18:51.163Z,150
2018-10-11T10:19:51.428Z,155
2018-10-11T10:20:50.940Z,150
2018-10-11T10:21:51.571Z,150
2018-10-11T10:22:51.413Z,150
2018-10-11T10:23:51.406Z,150
2018-10-11T10:24:51.164Z,150
2018-10-11T10:25:51.400Z,150
2018-10-11T10:26:51.109Z,150
2018-10-11T10:27:51.143Z,150
2018-10-11T10:28:50.888Z,150
2018-10-11T10:29:51.143Z,150
2018-10-11T10:30:50.891Z,145
2018-10-11T10:31:51.137Z,145
2018-10-11T10:32:51.386Z,145
2018-10-11T10:33:51.193Z,150
2018-10-11T10:34:51.383Z,150
2018-10-11T10:35:51.377Z,145
2018-10-11T10:36:50.672Z,145
2018-10-11T10:37:51.119Z,145
2018-10-11T10:38:51.115Z,145
2018-10-11T10:39:51.627Z,145
2018-10-11T10:40:50.861Z,145
2018-10-11T10:41:51.361Z,145
2018-10-11T10:42:51.359Z,145
2018-10-11T10:43:50.851Z,140
2018-10-11T10:44:51.363Z,140
2018-10-11T10:45:51.348Z,145
2018-10-11T10:46:50.854Z,140
2018-10-11T10:47:51.347Z,145
2018-10-11T10:48:51.613Z,140
2018-10-11T10:49:51.341Z,140
2018-10-11T10:50:51.088Z,145
2018-10-11T10:51:51.337Z,145
2018-10-11T10:52:51.092Z,145
2018-10-11T10:53:51.333Z,145
2018-10-11T10:54:51.330Z,140
2018-10-11T10:55:50.827Z,140
2018-10-11T10:56:51.324Z,140
2018-10-11T10:57:51.078Z,140
2018-10-11T10:58:51.067Z,140
2018-10-11T10:59:51.320Z,140
2018-10-11T11:00:51.321Z,140
2018-10-11T11:01:51.318Z,145
2018-10-11T11:02:51.072Z,140
2018-10-11T11:03:51.059Z,140
2018-10-11T11:04:50.807Z,140
2018-10-11T11:05:51.052Z,140
2018-10-11T11:06:50.545Z,140
2018-10-11T11:07:51.051Z,140
2018-10-11T11:08:50.793Z,145
2018-10-11T11:09:50.798Z,145
2018-10-11T11:10:51.292Z,145
2018-10-11T11:11:51.038Z,145
2018-10-11T11:12:51.291Z,145
2018-10-11T11:13:51.280Z,145
2018-10-11T11:14:50.785Z,145
2018-10-11T11:15:50.786Z,145
2018-10-11T11:16:51.285Z,145
2018-10-11T11:17:51.313Z,140
2018-10-11T11:18:50.936Z,140
2018-10-11T11:19:50.768Z,140
2018-10-11T11:20:51.289Z,140
2018-10-11T11:21:50.766Z,140
2018-10-11T11:22:50.761Z,140
2018-10-11T11:23:51.020Z,140
2018-10-11T11:24:51.010Z,140
2018-10-11T11:25:51.012Z,140
2018-10-11T11:26:51.259Z,140
2018-10-11T11:27:50.764Z,140
2018-10-11T11:28:50.750Z,140
2018-10-11T11:29:51.268Z,140
2018-10-11T11:30:50.744Z,140
2018-10-11T11:31:51.008Z,140
2018-10-11T11:32:50.743Z,140
2018-10-11T11:33:50.991Z,140
2018-10-11T11:34:50.996Z,140
2018-10-11T11:35:50.991Z,140
2018-10-11T11:36:51.242Z,135
2018-10-11T11:37:51.237Z,135
2018-10-11T11:38:50.978Z,135
2018-10-11T11:39:50.746Z,135
2018-10-11T11:40:50.477Z,135
2018-10-11T11:41:51.236Z,135
2018-10-11T11:42:50.726Z,135
2018-10-11T11:43:51.232Z,135
2018-10-11T11:44:51.226Z,135
2018-10-11T11:45:51.556Z,135
2018-10-11T11:46:51.285Z,135
2018-10-11T11:47:50.973Z,135
2018-10-11T11:48:51.219Z,135
2018-10-11T11:49:51.215Z,135
2018-10-11T11:50:50.731Z,135
2018-10-11T11:51:51.215Z,135
2018-10-11T11:52:50.962Z,135
2018-10-11T11:53:51.211Z,135
2018-10-11T11:54:51.209Z,135
2018-10-11T11:55:50.969Z,135
2018-10-11T11:56:51.219Z,135
2018-10-11T11:57:50.721Z,135
2018-10-11T11:58:50.948Z,135
2018-10-11T11:59:50.942Z,135
2018-10-11T12:00:50.942Z,135
2018-10-11T12:01:50.944Z,135
2018-10-11T12:02:51.348Z,135
2018-10-11T12:03:50.940Z,135
2018-10-11T12:04:50.683Z,135
2018-10-11T12:05:50.681Z,135
2018-10-11T12:06:51.185Z,135
2018-10-11T12:07:50.933Z,135
2018-10-11T12:08:50.931Z,135
2018-10-11T12:09:50.930Z,135
2018-10-11T12:10:50.484Z,135
2018-10-11T12:11:50.677Z,135
2018-10-11T12:12:50.674Z,135
2018-10-11T12:13:50.920Z,135
2018-10-11T12:14:50.929Z,135
2018-10-11T12:15:50.924Z,135
2018-10-11T12:16:51.657Z,135
2018-10-11T12:17:50.947Z,135
2018-10-11T12:18:50.917Z,135
2018-10-11T12:19:51.167Z,135
2018-10-11T12:20:51.015Z,135
2018-10-11T12:21:50.666Z,130
2018-10-11T12:22:51.163Z,130
2018-10-11T12:23:50.910Z,130
2018-10-11T12:24:51.113Z,130
2018-10-11T12:25:50.675Z,130
2018-10-11T12:26:50.908Z,130
2018-10-11T12:27:51.169Z,130
2018-10-11T12:28:51.413Z,130
2018-10-11T12:29:51.158Z,130
2018-10-11T12:30:50.393Z,130
2018-10-11T12:31:50.642Z,130
2018-10-11T12:32:50.643Z,130
2018-10-11T12:33:50.894Z,130
2018-10-11T12:34:51.152Z,130
2018-10-11T12:35:50.639Z,130
2018-10-11T12:36:50.896Z,130
2018-10-11T12:37:51.346Z,130
2018-10-11T12:38:51.807Z,130
2018-10-11T12:39:50.883Z,130
2018-10-11T12:40:50.897Z,130
2018-10-11T12:41:50.919Z,130
2018-10-11T12:42:50.639Z,130
2018-10-11T12:43:50.885Z,130
2018-10-11T12:44:51.140Z,130
2018-10-11T12:45:50.698Z,130
2018-10-11T12:46:51.618Z,130
2018-10-11T12:47:50.889Z,130
2018-10-11T12:48:51.125Z,130
2018-10-11T12:49:55.890Z,130
2018-10-11T12:50:51.178Z,130
2018-10-11T12:51:51.602Z,130
2018-10-11T12:52:51.124Z,130
2018-10-11T12:53:54.849Z,130
2018-10-11T12:54:50.916Z,130
2018-10-11T12:55:51.135Z,125
2018-10-11T12:56:52.244Z,125
2018-10-11T12:57:51.070Z,125
2018-10-11T12:58:50.876Z,125
2018-10-11T12:59:51.119Z,125
2018-10-11T13:00:51.471Z,125
2018-10-11T13:01:50.604Z,125
2018-10-11T13:02:51.766Z,125
2018-10-11T13:03:50.852Z,125
2018-10-11T13:04:51.132Z,125
2018-10-11T13:05:51.151Z,125
2018-10-11T13:06:51.111Z,125
2018-10-11T13:07:51.107Z,125
2018-10-11T13:08:50.606Z,125
2018-10-11T13:09:51.114Z,125
2018-10-11T13:10:51.134Z,125
2018-10-11T13:11:51.109Z,125
2018-10-11T13:12:51.099Z,125
2018-10-11T13:13:57.803Z,125
2018-10-11T13:14:50.855Z,125
2018-10-11T13:15:51.938Z,125
2018-10-11T13:16:50.842Z,125
2018-10-11T13:17:50.594Z,125
2018-10-11T13:18:51.093Z,125
2018-10-11T13:19:50.336Z,125
2018-10-11T13:20:50.848Z,125
2018-10-11T13:21:51.082Z,125
2018-10-11T13:22:51.506Z,125
2018-10-11T13:23:50.581Z,125
2018-10-11T13:24:56.452Z,125
2018-10-11T13:25:50.838Z,125
2018-10-11T13:26:50.845Z,125
2018-10-11T13:27:51.085Z,125
2018-10-11T13:28:51.388Z,125
2018-10-11T13:29:50.580Z,125
2018-10-11T13:30:50.753Z,120
2018-10-11T13:31:50.839Z,120
2018-10-11T13:32:50.580Z,120
2018-10-11T13:33:52.857Z,120
2018-10-11T13:34:51.835Z,120
2018-10-11T13:35:50.870Z,120
2018-10-11T13:36:50.832Z,120
2018-10-11T13:37:50.831Z,120
2018-10-11T13:38:51.077Z,120
2018-10-11T13:39:59.443Z,120
2018-10-11T13:40:55.070Z,120
2018-10-11T13:41:52.228Z,120
2018-10-11T13:42:50.819Z,120
2018-10-11T13:43:50.564Z,120
2018-10-11T13:44:50.814Z,120
2018-10-11T13:45:59.022Z,120
2018-10-11T13:46:50.565Z,120
2018-10-11T13:47:52.632Z,120
2018-10-11T13:48:50.810Z,120
2018-10-11T13:49:51.066Z,120
2018-10-11T13:50:50.559Z,120
2018-10-11T13:51:50.557Z,115
2018-10-11T13:52:51.203Z,115
2018-10-11T13:54:02.582Z,115
2018-10-11T13:54:51.070Z,115
2018-10-11T13:56:04.726Z,115
2018-10-11T13:57:01.445Z,115
2018-10-11T13:57:50.806Z,115
2018-10-11T13:58:51.409Z,115
2018-10-11T13:59:50.550Z,115
2018-10-11T14:00:50.702Z,115
2018-10-11T14:01:50.801Z,115
2018-10-11T14:02:50.546Z,115
2018-10-11T14:03:50.810Z,115
2018-10-11T14:04:50.966Z,115
2018-10-11T14:05:50.818Z,115
2018-10-11T14:06:50.795Z,115
2018-10-11T14:07:50.552Z,115
2018-10-11T14:08:50.795Z,110
2018-10-11T14:09:50.289Z,110